KFCS

Butts AAF (Fort Carson) Airport

Fort Carson, Colorado, USA
TAF KFCS 211300Z 2113/2219 20009KT 9999 SCT070 QNH3022INS BECMG 2117/2118 16012KT 9999 FEW090 QNH3018INS TEMPO 2121/2202 VRB20G30KT VCTS SCT100CB BECMG 2202/2203 15009KT 9999 FEW140 QNH3010INS BECMG 2217/2218 20012KT 9999 FEW200 QNH2999INS TX30/2121Z TN12/2113Z
Issued Valid From Valid To
Jun-21 @ 13:00 UTC
(5 hours ago)
Jun-21 @ 13:00 UTC
(5 hours ago)
Jun-22 @ 19:00 UTC
(-1 days ago)
Expired Click to View Jun-21 @ 13:00 to Jun-21 @ 17:00
TAF KFCS 211300Z 2113/2219 20009KT 9999 SCT070 QNH3022INS
Wind Visibility Clouds Readings
200° at 9 knots Greater than 6 miles
  • Scattered at 7,000' AGL
Altimeter 30.21" Hg
Pressure 1023 hPa
Becoming Jun-21 @ 17:00 to Jun-22 @ 02:00
BECMG 2117/2118 16012KT 9999 FEW090 QNH3018INS
Wind Visibility Clouds Readings
160° at 12 knots Greater than 6 miles
  • Few at 9,000' AGL
Altimeter 30.18" Hg
Pressure 1022 hPa
Temporary Jun-21 @ 21:00 to Jun-22 @ 02:00
TEMPO 2121/2202 VRB20G30KT VCTS SCT100CB
Wind Clouds Conditions
Variable at 20 knots
 Gusting to 30 knots
  • Scattered at 10,000' AGL
  • Area Thunderstorm
Becoming Jun-22 @ 02:00 to Jun-22 @ 17:00
BECMG 2202/2203 15009KT 9999 FEW140 QNH3010INS
Wind Visibility Clouds Readings
150° at 9 knots Greater than 6 miles
  • Few at 14,000' AGL
Altimeter 30.09" Hg
Pressure 1019 hPa
Becoming Jun-22 @ 17:00 to Jun-22 @ 19:00
BECMG 2217/2218 20012KT 9999 FEW200 QNH2999INS TX30/2121Z TN12/2113Z
Wind Visibility Clouds Readings
200° at 12 knots Greater than 6 miles
  • Few at 20,000' AGL
Altimeter 30" Hg
Pressure 1016 hPa
TAF KFCS 211300Z 2113/2219 20009KT 9999 SCT070 QNH3022INS BECMG 2117/2118 16012KT 9999 FEW090 QNH3018INS TEMPO 2121/2202 VRB20G30KT VCTS SCT100CB BECMG 2202/2203 15009KT 9999 FEW140 QNH3010INS BECMG 2217/2218 20012KT 9999 FEW200 QNH2999INS TX30/2121Z TN12/2113Z
Issued Jun-21 @ 13:00 UTC
(5 hours ago)
Valid From Jun-21 @ 13:00 UTC
(5 hours ago)
Valid To Jun-22 @ 19:00 UTC
(-1 days ago)
Jun-21 @ 13:00 - Jun-21 @ 17:00
Wind Visibility
200° at 9 knots Greater than 6 miles
Clouds
  • Scattered at 7,000' AGL
Becoming Jun-21 @ 17:00 - Jun-22 @ 02:00
Wind Visibility
160° at 12 knots Greater than 6 miles
Clouds
  • Few at 9,000' AGL
Temporary Jun-21 @ 21:00 - Jun-22 @ 02:00
Wind
Variable at 20 knots
 Gusting to 30 knots
Clouds
  • Scattered at 10,000' AGL
Conditions
  • Area Thunderstorm
Becoming Jun-22 @ 02:00 - Jun-22 @ 17:00
Wind Visibility
150° at 9 knots Greater than 6 miles
Clouds
  • Few at 14,000' AGL
Becoming Jun-22 @ 17:00 - Jun-22 @ 19:00
Wind Visibility
200° at 12 knots Greater than 6 miles
Clouds
  • Few at 20,000' AGL